TimeCST,TemperatureF,Dew PointF,Humidity,Sea Level PressureIn,VisibilityMPH,Wind Direction,Wind SpeedMPH,Gust SpeedMPH,PrecipitationIn,Events,Conditions,WindDirDegrees,DateUTC
12:53 AM,28.0,15.1,58,29.91,10.0,South,11.5,-,N/A,,Clear,180,2013-02-04 06:53:00
1:53 AM,28.0,16.0,61,29.86,10.0,South,12.7,-,N/A,,Clear,180,2013-02-04 07:53:00
2:53 AM,28.9,18.0,64,29.84,10.0,South,13.8,-,N/A,,Clear,190,2013-02-04 08:53:00
4:53 AM,28.9,19.9,69,29.79,10.0,South,9.2,-,N/A,,Clear,190,2013-02-04 10:53:00
5:53 AM,28.9,21.0,72,29.80,10.0,SW,5.8,-,N/A,,Clear,220,2013-02-04 11:53:00
6:53 AM,28.0,21.0,75,29.80,10.0,SW,4.6,-,N/A,,Clear,220,2013-02-04 12:53:00
7:53 AM,28.9,21.9,75,29.81,10.0,Calm,Calm,-,N/A,,Overcast,0,2013-02-04 13:53:00
8:53 AM,30.0,21.9,72,29.83,10.0,WNW,4.6,-,N/A,,Partly Cloudy,300,2013-02-04 14:53:00
9:53 AM,32.0,23.0,69,29.84,10.0,NNW,11.5,-,N/A,,Partly Cloudy,330,2013-02-04 15:53:00
10:53 AM,33.1,23.0,66,29.87,10.0,North,15.0,-,N/A,,Clear,360,2013-02-04 16:53:00
11:53 AM,33.1,23.0,66,29.89,10.0,North,15.0,-,N/A,,Clear,360,2013-02-04 17:53:00
12:41 PM,28.4,23.0,80,29.90,9.0,NNW,21.9,26.5,N/A,,Overcast,340,2013-02-04 18:41:00
12:53 PM,28.0,21.9,78,29.94,8.0,NNW,19.6,29.9,N/A,,Overcast,340,2013-02-04 18:53:00
1:12 PM,26.6,21.2,80,29.91,8.0,North,16.1,27.6,N/A,,Overcast,350,2013-02-04 19:12:00
1:53 PM,27.0,21.9,81,29.93,9.0,North,16.1,21.9,N/A,,Overcast,10,2013-02-04 19:53:00
2:43 PM,26.6,21.2,80,29.90,10.0,NNE,12.7,-,N/A,,Overcast,20,2013-02-04 20:43:00
2:53 PM,27.0,19.9,75,29.93,10.0,NNE,11.5,-,N/A,,Overcast,20,2013-02-04 20:53:00
3:53 PM,28.0,21.0,75,29.95,10.0,North,9.2,-,N/A,,Overcast,360,2013-02-04 21:53:00
4:53 PM,28.0,19.9,72,29.98,10.0,NNW,6.9,-,N/A,,Overcast,340,2013-02-04 22:53:00
5:53 PM,26.1,19.0,75,29.98,10.0,North,9.2,-,N/A,,Mostly Cloudy,360,2013-02-04 23:53:00
6:04 PM,24.8,19.4,80,29.95,10.0,North,9.2,-,N/A,,Partly Cloudy,350,2013-02-05 00:04:00
6:53 PM,25.0,19.0,78,29.99,10.0,North,6.9,-,N/A,,Clear,360,2013-02-05 00:53:00
7:53 PM,24.1,19.0,81,30.00,10.0,North,6.9,-,N/A,,Clear,350,2013-02-05 01:53:00
8:53 PM,24.1,18.0,77,30.01,10.0,North,6.9,-,N/A,,Clear,10,2013-02-05 02:53:00
9:53 PM,21.9,17.1,82,29.99,10.0,East,3.5,-,N/A,,Clear,90,2013-02-05 03:53:00
10:53 PM,19.9,16.0,85,29.99,8.0,Calm,Calm,-,N/A,,Clear,0,2013-02-05 04:53:00
11:53 PM,21.0,17.1,85,29.98,9.0,Calm,Calm,-,N/A,,Clear,0,2013-02-05 05:53:00